Time;durP1;ratioP1;P1;durP2;ratioP2;P2;SDS_P1;SDS_P2;PMS_P1;PMS_P2;Temp;Humidity;BMP_temperature;BMP_pressure;BME280_temperature;BME280_humidity;BME280_pressure;Samples;Min_cycle;Max_cycle;Signal;HPM_P1;HPM_P2
2022/06/01 00:00:54;;;;;;;4.15;2.92;;;;;;;16.13;61.77;98789.39;1711319;83;21551;-60
2022/06/01 00:03:21;;;;;;;3.35;2.80;;;;;;;16.12;62.05;98787.23;1698185;83;21530;-60
2022/06/01 00:05:47;;;;;;;3.67;2.58;;;;;;;16.09;62.23;98791.47;1710184;83;21022;-60
2022/06/01 00:08:13;;;;;;;2.85;2.65;;;;;;;16.09;62.41;98791.97;1710160;83;21496;-60
2022/06/01 00:10:39;;;;;;;2.70;2.50;;;;;;;16.08;61.83;98795.11;1709910;83;21532;-61
2022/06/01 00:13:05;;;;;;;3.33;3.02;;;;;;;16.06;62.81;98796.20;1709546;83;21082;-60
2022/06/01 00:15:31;;;;;;;3.30;3.00;;;;;;;16.05;63.11;98792.72;1702732;83;21064;-60
2022/06/01 00:18:00;;;;;;;4.65;3.10;;;;;;;16.03;63.28;98789.86;1710069;83;21511;-61
2022/06/01 00:20:27;;;;;;;5.97;3.37;;;;;;;16.02;63.28;98792.14;1701570;83;21078;-61
2022/06/01 00:22:53;;;;;;;5.37;3.37;;;;;;;15.94;64.79;98796.78;1702423;83;21021;-60
2022/06/01 00:25:19;;;;;;;3.50;2.77;;;;;;;15.96;63.63;98795.33;1714204;83;21682;-60
2022/06/01 00:27:45;;;;;;;3.75;3.25;;;;;;;15.91;64.75;98794.38;1702576;83;21026;-61
2022/06/01 00:30:15;;;;;;;4.05;3.40;;;;;;;15.91;63.91;98796.54;1708512;83;20990;-60
2022/06/01 00:32:41;;;;;;;4.60;3.37;;;;;;;15.91;64.58;98799.69;1704226;83;20995;-60
2022/06/01 00:35:09;;;;;;;5.78;3.42;;;;;;;15.92;64.01;98801.38;1713753;83;21030;-60
2022/06/01 00:37:35;;;;;;;5.45;3.27;;;;;;;15.91;64.88;98801.01;1710368;83;21034;-61
2022/06/01 00:40:05;;;;;;;3.85;3.20;;;;;;;15.91;65.19;98803.66;1705544;83;21017;-60
2022/06/01 00:42:35;;;;;;;6.12;3.33;;;;;;;15.89;65.86;98798.48;1702411;83;21063;-61
2022/06/01 00:45:03;;;;;;;5.47;3.20;;;;;;;15.90;65.24;98786.09;1710629;83;21066;-61
2022/06/01 00:47:29;;;;;;;4.97;3.08;;;;;;;15.93;65.81;98785.80;1705937;83;21010;-60
2022/06/01 00:50:11;;;;;;;3.22;2.90;;;;;;;15.93;65.80;98784.02;1700099;83;21122;-61
2022/06/01 00:52:45;;;;;;;3.75;3.35;;;;;;;15.94;65.94;98780.87;1709238;83;21606;-61
2022/06/01 00:55:19;;;;;;;5.78;3.22;;;;;;;15.93;65.88;98781.36;1702996;83;21089;-60
2022/06/01 00:57:50;;;;;;;4.45;3.30;;;;;;;15.93;65.84;98768.11;1703543;83;21081;-60
2022/06/01 01:00:27;;;;;;;3.50;3.20;;;;;;;15.93;66.15;98768.56;1708626;82;21085;-61
2022/06/01 01:02:56;;;;;;;5.37;3.22;;;;;;;15.97;65.82;98770.47;1721522;83;21524;-60
2022/06/01 01:05:25;;;;;;;3.98;3.55;;;;;;;15.95;66.70;98765.30;1677840;83;21206;-60
2022/06/01 01:07:53;;;;;;;5.60;3.35;;;;;;;15.96;66.44;98776.27;1714580;83;21046;-61
2022/06/01 01:10:20;;;;;;;5.58;3.37;;;;;;;15.98;65.96;98773.00;1697239;83;20997;-61
2022/06/01 01:13:04;;;;;;;;;;;;;;;15.97;67.17;98775.78;1708888;83;21069;-60
2022/06/01 01:15:31;;;;;;;7.33;3.62;;;;;;;15.96;67.65;98774.11;1704270;83;20156;-60
2022/06/01 01:17:59;;;;;;;3.25;2.92;;;;;;;15.97;66.21;98775.31;1702325;83;21006;-61
2022/06/01 01:20:27;;;;;;;3.98;3.37;;;;;;;15.93;66.37;98769.89;1702197;83;20979;-61
2022/06/01 01:23:13;;;;;;;4.05;3.20;;;;;;;15.96;66.14;98773.62;1704840;83;21100;-60
2022/06/01 01:25:39;;;;;;;3.98;3.50;;;;;;;15.94;66.46;98775.56;1704814;83;21057;-60
2022/06/01 01:28:07;;;;;;;4.15;3.58;;;;;;;15.90;66.79;98771.51;1708454;83;21061;-60
2022/06/01 01:30:42;;;;;;;4.12;3.70;;;;;;;15.88;66.60;98787.54;1711050;83;21102;-59
2022/06/01 01:33:13;;;;;;;4.55;3.30;;;;;;;15.85;67.17;98807.68;1701763;83;21014;-59
2022/06/01 01:35:41;;;;;;;3.70;3.40;;;;;;;15.87;67.12;98818.16;1705679;83;21039;-59
2022/06/01 01:38:30;;;;;;;4.75;4.17;;;;;;;15.85;67.62;98824.91;1705236;83;21182;-60
2022/06/01 01:41:07;;;;;;;5.95;3.90;;;;;;;15.86;67.65;98841.19;1705347;83;21073;-59
2022/06/01 01:43:45;;;;;;;6.90;4.05;;;;;;;15.86;67.46;98856.23;1702772;83;21598;-60
2022/06/01 01:46:11;;;;;;;5.10;3.87;;;;;;;15.84;67.39;98863.48;1704304;83;21038;-60
2022/06/01 01:48:37;;;;;;;10.80;4.05;;;;;;;15.78;67.90;98862.19;1706572;83;21021;-59
2022/06/01 01:51:05;;;;;;;4.60;3.95;;;;;;;15.72;68.33;98863.52;1711220;83;20991;-61
2022/06/01 01:53:32;;;;;;;7.05;4.25;;;;;;;15.52;71.32;98857.71;1707974;83;21072;-60
2022/06/01 01:56:04;;;;;;;;;;;;;;;15.51;70.52;98848.06;1706463;83;21002;-59
2022/06/01 01:58:42;;;;;;;4.28;3.87;;;;;;;15.49;70.99;98853.98;1705669;83;20117;-59
2022/06/01 02:01:33;;;;;;;8.95;3.72;;;;;;;15.50;69.71;98848.56;1703606;83;21077;-59
2022/06/01 02:06:03;;;;;;;7.60;4.67;;;;;;;15.39;71.76;98843.31;1721538;83;21575;-59
2022/06/01 02:06:43;;;;;;;5.72;4.45;;;;;;;15.42;70.38;98843.53;1708862;83;21038;-59
2022/06/01 02:09:13;;;;;;;6.35;4.10;;;;;;;15.44;70.32;98828.34;1714513;83;21575;-60
2022/06/01 02:14:54;;;;;;;8.83;4.00;;;;;;;15.44;70.90;98829.67;1705839;83;21046;-59
2022/06/01 02:17:36;;;;;;;4.67;4.10;;;;;;;15.47;70.31;98822.30;1709408;83;21579;-60
2022/06/01 02:20:11;;;;;;;5.35;4.20;;;;;;;15.49;70.58;98823.02;1715260;83;21057;-60
2022/06/01 02:22:39;;;;;;;4.42;4.03;;;;;;;15.52;70.63;98822.77;1715658;83;21051;-59
2022/06/01 02:25:09;;;;;;;4.90;3.75;;;;;;;15.58;70.00;98828.04;1705055;83;21066;-59
2022/06/01 02:27:38;;;;;;;4.60;4.20;;;;;;;15.61;70.17;98822.95;1706607;83;21013;-59
2022/06/01 02:30:15;;;;;;;5.97;4.37;;;;;;;15.61;70.10;98817.19;1710063;83;21170;-60
2022/06/01 02:32:42;;;;;;;6.03;4.05;;;;;;;15.61;70.52;98813.22;1708511;83;21070;-60
2022/06/01 02:35:10;;;;;;;6.55;4.12;;;;;;;15.63;70.04;98812.59;1709487;83;21354;-59
2022/06/01 02:37:40;;;;;;;7.92;4.22;;;;;;;15.63;70.03;98811.77;1691126;83;21148;-59
2022/06/01 02:43:04;;;;;;;5.60;4.17;;;;;;;15.65;69.78;98810.66;1650072;80;21613;-59
2022/06/01 02:45:31;;;;;;;6.40;4.67;;;;;;;15.66;69.73;98809.70;1621264;86;21170;-60
2022/06/01 02:48:00;;;;;;;6.58;4.60;;;;;;;15.66;69.74;98817.66;1638235;86;21064;-60
2022/06/01 02:50:30;;;;;;;8.03;5.10;;;;;;;15.63;69.45;98820.55;1650756;86;21077;-59
2022/06/01 02:52:56;;;;;;;11.10;4.78;;;;;;;15.64;69.41;98827.52;1697580;83;21048;-59
2022/06/01 02:55:24;;;;;;;6.05;5.22;;;;;;;15.54;70.50;98828.78;1714050;83;21084;-59
2022/06/01 02:57:52;;;;;;;9.25;5.03;;;;;;;15.49;70.53;98826.16;1694616;83;21573;-59
2022/06/01 03:00:23;;;;;;;8.88;4.95;;;;;;;15.46;70.85;98827.73;1699804;83;21900;-59
2022/06/01 03:02:52;;;;;;;7.03;5.12;;;;;;;15.47;70.74;98840.02;1690633;83;21036;-59
2022/06/01 03:05:21;;;;;;;7.05;5.03;;;;;;;15.43;71.47;98839.92;1696066;83;21547;-59
2022/06/01 03:07:47;;;;;;;7.75;4.60;;;;;;;15.35;72.66;98839.20;1717989;83;21020;-59
2022/06/01 03:10:13;;;;;;;12.53;4.95;;;;;;;15.36;72.90;98831.63;1713536;83;21060;-60
2022/06/01 03:12:40;;;;;;;8.93;4.78;;;;;;;15.29;73.03;98836.59;1710395;83;21450;-60
2022/06/01 03:15:08;;;;;;;7.40;4.65;;;;;;;15.25;74.03;98834.33;1705237;83;21011;-60
2022/06/01 03:17:34;;;;;;;12.45;4.85;;;;;;;15.27;74.46;98833.72;1726595;83;21032;-60
2022/06/01 03:20:01;;;;;;;6.95;4.72;;;;;;;15.27;74.19;98836.36;1698911;82;21613;-61
2022/06/01 03:22:27;;;;;;;6.10;4.83;;;;;;;15.27;73.95;98833.22;1710093;82;21498;-61
2022/06/01 03:24:53;;;;;;;5.72;4.25;;;;;;;15.28;73.71;98829.63;1699463;82;21529;-61
2022/06/01 03:27:19;;;;;;;6.37;4.05;;;;;;;15.19;74.74;98833.48;1712025;83;21027;-61
2022/06/01 03:29:45;;;;;;;4.95;3.92;;;;;;;15.20;73.58;98837.34;1707835;83;21032;-60
2022/06/01 03:32:12;;;;;;;7.67;4.22;;;;;;;15.21;74.00;98835.52;1706028;83;21442;-61
2022/06/01 03:34:38;;;;;;;7.50;4.62;;;;;;;15.24;73.79;98838.77;1718383;83;21390;-60
2022/06/01 03:37:05;;;;;;;6.37;4.00;;;;;;;15.14;74.55;98834.71;1695516;83;21086;-61
2022/06/01 03:39:31;;;;;;;4.03;3.55;;;;;;;15.14;74.55;98834.71;1689891;83;21042;-60
2022/06/01 03:41:59;;;;;;;6.87;4.30;;;;;;;15.14;74.49;98837.85;1681446;83;21019;-61
2022/06/01 03:47:10;;;;;;;4.75;3.25;;;;;;;15.11;74.32;98839.41;1712526;83;21040;-60
2022/06/01 03:49:37;;;;;;;2.90;2.60;;;;;;;15.09;74.15;98841.35;1715725;83;21040;-60
2022/06/01 03:52:04;;;;;;;4.92;2.50;;;;;;;15.03;74.82;98834.75;1721695;83;21091;-60
2022/06/01 03:54:31;;;;;;;4.25;2.70;;;;;;;14.98;74.05;98840.89;1715081;83;21044;-60
2022/06/01 03:56:57;;;;;;;2.37;2.17;;;;;;;14.92;74.13;98853.31;1693284;83;21034;-60
2022/06/01 03:59:23;;;;;;;3.77;2.20;;;;;;;14.88;74.75;98839.48;1693883;83;21045;-59
2022/06/01 04:01:49;;;;;;;3.65;1.72;;;;;;;14.83;75.27;98844.30;1691632;83;21085;-61
2022/06/01 04:04:15;;;;;;;1.98;1.77;;;;;;;14.76;76.49;98837.81;1717727;83;21040;-62
2022/06/01 04:06:41;;;;;;;3.77;1.57;;;;;;;14.77;75.74;98834.18;1712506;83;21631;-60
2022/06/01 04:09:07;;;;;;;1.82;1.57;;;;;;;14.78;75.68;98830.59;1705049;83;21048;-61
2022/06/01 04:11:32;;;;;;;2.02;1.72;;;;;;;14.78;75.88;98821.32;1686114;83;21566;-60
2022/06/01 04:13:58;;;;;;;1.90;1.50;;;;;;;14.80;75.74;98825.17;1703118;83;21086;-58
2022/06/01 04:16:25;;;;;;;2.62;1.37;;;;;;;14.77;75.94;98826.23;1702353;83;21561;-59
2022/06/01 04:18:51;;;;;;;3.60;2.00;;;;;;;14.71;75.61;98811.70;1714653;83;21639;-59
2022/06/01 04:21:21;;;;;;;2.58;1.50;;;;;;;14.71;75.61;98811.70;1694829;83;21041;-61
2022/06/01 04:23:50;;;;;;;1.75;1.62;;;;;;;14.73;75.83;98811.58;1710253;83;21515;-62
2022/06/01 04:26:16;;;;;;;2.17;1.62;;;;;;;14.73;76.53;98805.80;1710436;83;21038;-61
2022/06/01 04:28:44;;;;;;;2.75;1.60;;;;;;;14.75;76.51;98800.38;1685110;83;21008;-59
2022/06/01 04:31:10;;;;;;;2.87;1.90;;;;;;;14.74;77.55;98793.42;1712407;83;21663;-61
2022/06/01 04:33:38;;;;;;;1.98;1.30;;;;;;;14.77;76.61;98797.13;1708626;83;21517;-62
2022/06/01 04:36:05;;;;;;;3.72;1.70;;;;;;;14.75;76.50;98777.88;1690764;83;21020;-61
2022/06/01 04:38:31;;;;;;;2.63;1.43;;;;;;;14.73;77.54;98782.47;1711368;83;21544;-60
2022/06/01 04:40:56;;;;;;;3.95;1.57;;;;;;;14.74;77.60;98782.84;1696717;83;21022;-59
2022/06/01 04:43:22;;;;;;;4.10;1.67;;;;;;;14.77;77.05;98789.19;1701122;83;21114;-61
2022/06/01 04:45:54;;;;;;;2.60;1.67;;;;;;;14.81;76.85;98788.00;1678671;85;21065;-61
2022/06/01 04:48:22;;;;;;;2.12;1.82;;;;;;;14.82;77.45;98788.34;1705151;83;21082;-60
2022/06/01 04:50:49;;;;;;;2.35;1.85;;;;;;;14.85;77.79;98789.91;1704915;83;21543;-63
2022/06/01 04:53:17;;;;;;;4.40;1.75;;;;;;;14.86;77.97;98783.63;1716282;83;21016;-62
2022/06/01 04:55:45;;;;;;;4.03;1.35;;;;;;;14.85;78.00;98782.80;1692408;83;21041;-61
2022/06/01 04:58:11;;;;;;;2.22;2.00;;;;;;;14.85;78.65;98777.51;1693196;83;21062;-62
2022/06/01 05:00:39;;;;;;;5.40;2.22;;;;;;;14.90;77.56;98771.36;1703203;83;21203;-62
2022/06/01 05:03:06;;;;;;;2.52;1.85;;;;;;;14.91;77.45;98777.00;1698031;83;21539;-62
2022/06/01 05:05:36;;;;;;;7.50;1.92;;;;;;;14.86;77.83;98775.23;1678886;85;21006;-61
2022/06/01 05:08:00;;;;;;;5.10;1.45;;;;;;;14.87;77.95;98768.13;1709785;83;21424;-61
2022/06/01 05:10:27;;;;;;;2.12;1.60;;;;;;;14.83;78.28;98764.89;1698361;83;21054;-59
2022/06/01 05:12:54;;;;;;;2.55;1.37;;;;;;;14.84;77.46;98761.25;1694614;83;21025;-60
2022/06/01 05:15:20;;;;;;;2.80;1.40;;;;;;;14.90;77.19;98773.18;1699272;83;21499;-61
2022/06/01 05:17:46;;;;;;;3.02;1.35;;;;;;;14.88;76.43;98771.97;1688534;83;21026;-62
2022/06/01 05:20:13;;;;;;;2.00;1.40;;;;;;;14.90;77.16;98768.72;1700729;83;21557;-60
2022/06/01 05:22:40;;;;;;;1.62;1.52;;;;;;;14.91;77.31;98777.00;1706855;83;21498;-61
2022/06/01 05:25:07;;;;;;;3.17;1.50;;;;;;;14.94;77.65;98770.14;1699629;83;21040;-62
2022/06/01 05:27:34;;;;;;;2.08;1.85;;;;;;;14.97;76.74;98771.22;1695346;83;21085;-61
2022/06/01 05:30:00;;;;;;;3.10;2.33;;;;;;;14.98;76.93;98771.56;1697160;83;21511;-62
2022/06/01 05:32:27;;;;;;;6.22;3.12;;;;;;;15.01;77.08;98773.59;1685628;83;21038;-63
2022/06/01 05:34:53;;;;;;;4.30;3.58;;;;;;;15.00;78.34;98771.94;1709663;83;21115;-61
2022/06/01 05:37:19;;;;;;;6.47;3.62;;;;;;;15.01;77.33;98771.81;1699425;83;21025;-62
2022/06/01 05:39:45;;;;;;;4.20;3.58;;;;;;;15.03;77.80;98779.14;1707202;83;21562;-61
2022/06/01 05:42:11;;;;;;;7.62;4.00;;;;;;;15.04;78.42;98785.27;1687374;83;21006;-63
2022/06/01 05:44:38;;;;;;;4.22;3.65;;;;;;;15.06;77.34;98785.98;1722126;82;21515;-60
2022/06/01 05:47:04;;;;;;;4.60;3.75;;;;;;;15.07;77.62;98795.63;1716934;83;21067;-62
2022/06/01 05:49:31;;;;;;;8.30;4.37;;;;;;;15.05;78.04;98786.97;1711094;83;21553;-61
2022/06/01 05:51:57;;;;;;;4.33;3.02;;;;;;;15.04;78.32;98789.24;1694585;83;21527;-60
2022/06/01 05:54:23;;;;;;;8.20;2.72;;;;;;;15.04;78.02;98793.21;1715640;83;21057;-60
2022/06/01 05:56:49;;;;;;;3.58;2.50;;;;;;;15.01;78.59;98791.67;1704600;83;21008;-62
2022/06/01 05:59:16;;;;;;;6.65;2.27;;;;;;;15.00;78.25;98793.95;1694211;83;21528;-60
2022/06/01 06:01:42;;;;;;;10.23;2.70;;;;;;;14.98;78.07;98794.06;1712102;83;21804;-62
2022/06/01 06:04:08;;;;;;;5.47;2.98;;;;;;;14.96;78.50;98802.63;1705606;83;21539;-61
2022/06/01 06:06:34;;;;;;;3.10;2.58;;;;;;;14.96;78.63;98809.73;1699203;83;21049;-60
2022/06/01 06:09:07;;;;;;;5.33;3.58;;;;;;;15.02;79.21;98810.55;1695457;83;20996;-61
2022/06/01 06:11:37;;;;;;;3.87;3.52;;;;;;;15.14;78.85;98808.72;1721643;83;21529;-61
2022/06/01 06:14:05;;;;;;;5.00;2.77;;;;;;;15.22;79.30;98812.89;1723218;83;21581;-59
2022/06/01 06:16:37;;;;;;;5.47;3.87;;;;;;;15.35;78.69;98805.63;1707387;83;21557;-62
2022/06/01 06:19:04;;;;;;;4.17;3.60;;;;;;;15.46;78.74;98807.39;1707755;83;21509;-62
2022/06/01 06:21:31;;;;;;;3.33;2.80;;;;;;;15.53;79.26;98805.05;1703992;83;21010;-61
2022/06/01 06:24:04;;;;;;;5.28;2.90;;;;;;;15.62;78.95;98806.09;1723756;83;21012;-62
2022/06/01 06:26:30;;;;;;;3.95;2.35;;;;;;;15.79;78.46;98803.37;1699240;83;21493;-60
2022/06/01 06:28:56;;;;;;;2.85;2.55;;;;;;;15.95;78.34;98805.07;1723580;83;21012;-61
2022/06/01 06:31:22;;;;;;;6.65;2.75;;;;;;;15.97;77.72;98805.81;1697931;83;21464;-62
2022/06/01 06:33:48;;;;;;;2.72;2.40;;;;;;;16.03;76.92;98797.81;1698595;83;21026;-62
2022/06/01 06:36:14;;;;;;;3.67;2.20;;;;;;;16.06;77.44;98807.67;1712106;83;21084;-62
2022/06/01 06:38:41;;;;;;;4.25;2.20;;;;;;;16.03;77.00;98801.30;1712948;83;21045;-60
2022/06/01 06:41:10;;;;;;;2.25;2.05;;;;;;;15.89;77.07;98798.48;1712259;83;21505;-60
2022/06/01 06:43:37;;;;;;;3.50;2.02;;;;;;;15.95;76.73;98805.56;1717028;83;21035;-63
2022/06/01 06:46:08;;;;;;;5.70;2.20;;;;;;;15.91;76.92;98804.98;1708731;83;21080;-60
2022/06/01 06:48:35;;;;;;;2.52;2.12;;;;;;;15.96;77.05;98808.59;1700822;83;21790;-61
2022/06/01 06:51:01;;;;;;;2.25;1.92;;;;;;;15.97;77.68;98805.81;1702659;83;21036;-60
2022/06/01 06:53:28;;;;;;;5.05;2.20;;;;;;;15.88;77.76;98809.22;1699801;83;21024;-59
2022/06/01 06:55:54;;;;;;;3.33;1.93;;;;;;;15.89;77.54;98813.56;1711178;83;21040;-60
2022/06/01 06:58:21;;;;;;;2.33;2.10;;;;;;;15.86;77.32;98817.79;1678585;84;21021;-60
2022/06/01 07:00:47;;;;;;;3.97;1.87;;;;;;;15.86;77.42;98816.46;1679801;83;21046;-60
2022/06/01 07:03:13;;;;;;;5.42;2.22;;;;;;;15.85;78.07;98816.95;1708556;83;20997;-60
2022/06/01 07:08:25;;;;;;;9.18;2.37;;;;;;;15.95;78.56;98819.66;1720932;83;21621;-61
2022/06/01 07:10:52;;;;;;;2.37;2.22;;;;;;;15.98;77.62;98822.06;1692974;83;21077;-62
2022/06/01 07:13:17;;;;;;;2.85;2.05;;;;;;;16.04;77.09;98822.84;1720654;83;21024;-60
2022/06/01 07:15:43;;;;;;;2.25;1.98;;;;;;;16.08;77.33;98828.27;1719888;83;21486;-59
2022/06/01 07:18:10;;;;;;;4.30;2.30;;;;;;;16.14;76.91;98824.25;1705183;83;21534;-61
2022/06/01 07:20:35;;;;;;;2.55;1.95;;;;;;;16.09;77.92;98826.45;1713413;83;21007;-59
2022/06/01 07:23:02;;;;;;;1.98;1.75;;;;;;;16.04;77.75;98822.84;1714003;83;21024;-61
2022/06/01 07:25:28;;;;;;;1.47;1.30;;;;;;;16.18;77.39;98826.98;1713283;83;21012;-61
2022/06/01 07:27:55;;;;;;;4.23;1.50;;;;;;;16.20;76.56;98829.51;1687571;83;21064;-61
2022/06/01 07:30:22;;;;;;;1.52;1.40;;;;;;;16.22;75.76;98835.52;1678820;85;21018;-62
2022/06/01 07:32:48;;;;;;;4.05;1.60;;;;;;;16.21;76.32;98827.19;1708326;83;21145;-61
2022/06/01 07:35:17;;;;;;;3.55;1.55;;;;;;;16.30;76.87;98829.08;1700102;83;21089;-61
2022/06/01 07:43:16;;;;;;;1.50;1.40;;;;;;;16.41;75.86;98833.42;1698175;83;21635;-61
2022/06/01 07:45:46;;;;;;;3.05;1.87;;;;;;;16.53;75.38;98834.19;1713623;83;21064;-60
2022/06/01 07:48:12;;;;;;;1.47;1.32;;;;;;;16.56;75.31;98829.95;1695262;83;21089;-61
2022/06/01 07:50:38;;;;;;;1.75;1.60;;;;;;;16.60;74.90;98836.66;1698589;83;21074;-60
2022/06/01 07:53:07;;;;;;;2.80;1.70;;;;;;;16.64;74.48;98844.20;1701469;83;21078;-61
2022/06/01 07:55:35;;;;;;;6.12;1.57;;;;;;;16.70;74.69;98833.56;1710782;83;21040;-60
2022/06/01 07:58:01;;;;;;;1.92;1.82;;;;;;;16.66;74.96;98832.12;1711163;83;21493;-60
2022/06/01 08:00:29;;;;;;;1.98;1.87;;;;;;;16.77;74.62;98833.38;1706121;83;21049;-61
2022/06/01 08:02:54;;;;;;;2.02;1.80;;;;;;;16.85;74.84;98829.57;1724493;83;21035;-61
2022/06/01 08:05:22;;;;;;;1.70;1.60;;;;;;;16.89;74.55;98828.81;1708711;83;21506;-60
2022/06/01 08:07:48;;;;;;;1.90;1.70;;;;;;;16.90;74.07;98827.84;1716608;83;21524;-60
2022/06/01 08:10:18;;;;;;;4.08;1.72;;;;;;;16.96;73.76;98827.29;1679006;83;20997;-60
2022/06/01 08:15:29;;;;;;;3.12;1.67;;;;;;;16.98;72.83;98831.14;1681199;83;21086;-60
2022/06/01 08:17:57;;;;;;;1.95;1.80;;;;;;;16.93;73.02;98823.57;1703385;83;21088;-60
2022/06/01 08:20:23;;;;;;;3.77;2.00;;;;;;;16.98;73.10;98825.33;1702764;83;21034;-61
2022/06/01 08:22:49;;;;;;;1.77;1.67;;;;;;;17.13;73.34;98828.42;1709429;83;21521;-61
2022/06/01 08:25:17;;;;;;;2.47;1.50;;;;;;;17.32;73.40;98826.30;1718500;83;21027;-61
2022/06/01 08:27:45;;;;;;;2.00;1.80;;;;;;;17.53;72.98;98824.80;1683154;83;21533;-60
2022/06/01 08:30:14;;;;;;;1.40;1.20;;;;;;;17.72;71.84;98831.95;1708530;83;21035;-60
2022/06/01 08:32:41;;;;;;;1.55;1.10;;;;;;;17.77;69.49;98834.16;1715809;83;21029;-60
2022/06/01 08:35:11;;;;;;;1.75;1.30;;;;;;;17.92;67.52;98835.45;1722043;83;21110;-61
2022/06/01 08:37:37;;;;;;;1.75;1.42;;;;;;;18.05;67.52;98831.15;1700712;83;21067;-61
2022/06/01 08:40:05;;;;;;;1.98;1.02;;;;;;;18.22;68.16;98828.22;1715121;83;21094;-61
2022/06/01 08:42:32;;;;;;;1.05;0.93;;;;;;;18.35;66.80;98836.71;1703992;83;21070;-62
2022/06/01 08:45:04;;;;;;;2.77;1.17;;;;;;;18.59;65.12;98846.01;1712422;83;20996;-61
2022/06/01 08:47:38;;;;;;;1.00;1.00;;;;;;;18.67;61.61;98843.46;1703106;83;21391;-61
2022/06/01 08:50:12;;;;;;;1.27;1.17;;;;;;;18.86;63.63;98845.70;1698608;83;21062;-61
2022/06/01 08:52:38;;;;;;;1.10;1.10;;;;;;;18.98;62.43;98851.19;1705662;83;21000;-62
2022/06/01 08:55:05;;;;;;;1.32;1.17;;;;;;;19.04;61.02;98843.91;1715582;83;21045;-61
2022/06/01 08:57:56;;;;;;;1.27;1.15;;;;;;;19.05;60.87;98837.61;1713240;83;21063;-62
2022/06/01 09:00:26;;;;;;;2.40;0.98;;;;;;;19.37;60.85;98838.91;1695069;83;21512;-61
2022/06/01 09:03:29;;;;;;;3.92;1.12;;;;;;;19.49;60.73;98840.37;1690546;83;21067;-62
2022/06/01 09:06:10;;;;;;;4.28;1.30;;;;;;;19.32;59.65;98842.05;1694200;83;21492;-62
2022/06/01 09:08:59;;;;;;;6.47;1.10;;;;;;;19.34;60.42;98843.23;1720835;83;21070;-61
2022/06/01 09:11:32;;;;;;;1.50;1.15;;;;;;;19.53;59.41;98839.06;1714074;83;21585;-61
2022/06/01 09:14:15;;;;;;;1.10;1.00;;;;;;;19.87;58.62;98835.71;1724255;83;21059;-63
2022/06/01 09:16:46;;;;;;;2.40;1.20;;;;;;;20.25;58.05;98837.63;1693878;82;21164;-62
2022/06/01 09:19:29;;;;;;;1.17;1.00;;;;;;;20.45;54.39;98840.91;1651418;84;21069;-61
2022/06/01 09:24:49;;;;;;;2.12;1.02;;;;;;;20.59;54.93;98835.96;1714671;84;21139;-61
2022/06/01 09:27:17;;;;;;;1.17;1.07;;;;;;;20.60;53.18;98839.81;1714487;83;21009;-60
2022/06/01 09:29:47;;;;;;;1.62;1.35;;;;;;;20.96;54.24;98839.66;1714564;84;21543;-60
2022/06/01 09:32:33;;;;;;;2.08;1.37;;;;;;;20.84;51.64;98837.76;1714682;83;20999;-62
2022/06/01 09:35:10;;;;;;;0.85;0.85;;;;;;;20.71;53.00;98838.72;1717151;83;21594;-62
2022/06/01 09:37:46;;;;;;;;;;;;;;;20.35;51.62;98842.02;1717074;83;21018;-61
2022/06/01 09:40:26;;;;;;;1.20;1.10;;;;;;;20.12;51.34;98850.58;1714934;84;20400;-61
2022/06/01 09:42:54;;;;;;;2.15;1.20;;;;;;;19.89;52.17;98847.56;1714374;83;21633;-64
2022/06/01 09:45:33;;;;;;;1.87;1.05;;;;;;;19.79;53.01;98856.98;1690816;83;21011;-66
2022/06/01 09:48:28;;;;;;;2.52;1.00;;;;;;;19.68;52.64;98855.38;1700377;83;21028;-67
2022/06/01 09:51:17;;;;;;;2.55;1.50;;;;;;;19.45;51.36;98856.34;1721900;83;21482;-66
2022/06/01 09:53:48;;;;;;;1.07;1.00;;;;;;;19.30;51.84;98855.17;1709893;83;21012;-66
2022/06/01 09:56:40;;;;;;;1.00;0.90;;;;;;;19.19;51.48;98861.55;1704535;83;21085;-66
2022/06/01 10:07:25;;;;;;;2.87;1.25;;;;;;;20.73;48.42;98861.28;1700431;83;21028;-67
2022/06/01 10:10:00;;;;;;;1.42;0.75;;;;;;;21.62;42.89;98863.36;1696951;83;21034;-67
2022/06/01 10:12:49;;;;;;;2.47;0.93;;;;;;;22.54;43.38;98863.13;1706252;83;21028;-67
2022/06/01 10:15:42;;;;;;;5.00;0.88;;;;;;;23.34;43.41;98876.05;1723332;83;21071;-68
2022/06/01 10:18:13;;;;;;;0.95;0.70;;;;;;;24.21;41.78;98864.13;1701130;83;21076;-66
2022/06/01 10:20:50;;;;;;;1.20;0.90;;;;;;;24.95;37.02;98860.64;1705022;83;21052;-66
2022/06/01 10:23:36;;;;;;;2.02;1.20;;;;;;;25.37;37.74;98855.86;1712668;83;21071;-65
2022/06/01 10:26:33;;;;;;;4.03;1.52;;;;;;;25.96;37.20;98858.84;1675710;85;21510;-69
2022/06/01 10:29:12;;;;;;;2.62;0.82;;;;;;;26.53;35.96;98862.86;1708138;83;21060;-65
2022/06/01 10:31:48;;;;;;;1.45;0.90;;;;;;;26.60;31.80;98863.73;1711194;83;21040;-65
2022/06/01 10:34:39;;;;;;;1.90;0.80;;;;;;;25.63;32.02;98856.66;1704758;83;21519;-65
2022/06/01 10:37:31;;;;;;;1.20;1.10;;;;;;;25.43;33.09;98867.72;1715615;83;21016;-66
2022/06/01 10:40:15;;;;;;;1.30;0.85;;;;;;;24.70;32.42;98864.48;1710968;83;21043;-64
2022/06/01 10:43:17;;;;;;;3.77;1.00;;;;;;;24.25;32.74;98867.63;1705285;83;21053;-67
2022/06/01 10:45:54;;;;;;;3.05;0.82;;;;;;;25.10;33.65;98868.16;1724175;83;21518;-68
2022/06/01 10:48:29;;;;;;;;;;;;;;;25.03;31.10;98866.75;1675437;83;21026;-68
2022/06/01 10:51:16;;;;;;;2.08;1.20;;;;;;;25.32;30.24;98869.05;1691600;83;20127;-66
2022/06/01 10:54:04;;;;;;;2.98;0.95;;;;;;;25.55;32.36;98855.42;1713675;83;21059;-67
2022/06/01 10:56:30;;;;;;;2.75;1.05;;;;;;;25.19;31.48;98868.88;1700753;83;20997;-66
2022/06/01 10:59:04;;;;;;;1.20;1.00;;;;;;;24.91;31.91;98872.28;1702896;83;21185;-70
2022/06/01 11:02:02;;;;;;;6.72;1.10;;;;;;;25.27;32.06;98856.19;1687451;83;21040;-67
2022/06/01 11:05:02;;;;;;;6.03;0.93;;;;;;;25.74;30.20;98862.53;1720379;83;21082;-67
2022/06/01 11:08:11;;;;;;;1.42;1.05;;;;;;;26.08;29.91;98873.95;1704843;83;21049;-67
2022/06/01 11:11:09;;;;;;;1.12;1.00;;;;;;;27.00;29.71;98864.78;1676927;83;21044;-66
2022/06/01 11:13:43;;;;;;;6.58;1.35;;;;;;;26.91;28.09;98863.29;1711866;83;21023;-66
2022/06/01 11:16:50;;;;;;;2.45;1.17;;;;;;;26.75;27.76;98859.06;1690280;83;21040;-71
2022/06/01 11:19:51;;;;;;;2.65;0.85;;;;;;;27.10;27.36;98867.09;1703446;83;21509;-69
2022/06/01 11:22:38;;;;;;;1.40;0.80;;;;;;;27.45;26.10;98876.48;1709112;83;21005;-68
2022/06/01 11:25:36;;;;;;;2.98;1.05;;;;;;;27.88;27.53;98873.41;1727566;83;21154;-69
2022/06/01 11:28:34;;;;;;;2.15;0.90;;;;;;;28.44;26.88;98871.34;1723163;83;21584;-68
2022/06/01 11:31:11;;;;;;;2.72;1.05;;;;;;;28.52;25.76;98881.41;1693526;83;21569;-70
2022/06/01 11:33:43;;;;;;;1.10;0.80;;;;;;;27.62;26.28;98874.75;1723419;83;21131;-70
2022/06/01 11:36:42;;;;;;;3.83;1.30;;;;;;;27.32;26.57;98887.23;1710799;83;21019;-66
2022/06/01 11:39:34;;;;;;;1.22;1.00;;;;;;;27.02;26.81;98879.42;1584233;88;21094;-73
2022/06/01 11:42:27;;;;;;;2.00;1.10;;;;;;;26.35;26.33;98881.72;1596115;88;21593;-69
2022/06/01 11:45:08;;;;;;;1.42;1.05;;;;;;;26.00;26.07;98893.78;1595010;88;21345;-70
2022/06/01 11:47:51;;;;;;;1.42;1.05;;;;;;;25.51;25.98;98897.22;1587014;88;21076;-68
2022/06/01 11:50:49;;;;;;;2.62;1.07;;;;;;;25.01;26.15;98897.53;1587839;89;21471;-66
2022/06/01 11:53:35;;;;;;;1.37;1.00;;;;;;;25.48;25.66;98888.17;1589036;90;21221;-68
2022/06/01 11:56:26;;;;;;;3.70;0.90;;;;;;;26.17;25.46;98895.67;1565177;91;21034;-66
2022/06/01 11:59:16;;;;;;;2.05;1.00;;;;;;;26.34;24.79;98897.59;1580199;90;21045;-68
2022/06/01 12:01:47;;;;;;;2.98;1.00;;;;;;;26.12;25.13;98891.91;1575262;89;21088;-69
2022/06/01 12:04:30;;;;;;;1.37;1.15;;;;;;;25.39;24.78;98896.87;1602805;89;21576;-66
2022/06/01 12:07:16;;;;;;;2.27;1.10;;;;;;;25.23;25.48;98899.77;1586727;89;21216;-66
2022/06/01 12:09:50;;;;;;;1.30;0.93;;;;;;;25.26;25.86;98901.59;1607108;88;21164;-65
2022/06/01 12:12:36;;;;;;;1.00;0.80;;;;;;;25.71;25.61;98900.12;1600302;89;21561;-66
2022/06/01 12:15:32;;;;;;;2.52;1.00;;;;;;;26.10;25.80;98907.44;1664664;83;21066;-67
2022/06/01 12:18:15;;;;;;;2.40;0.98;;;;;;;26.38;25.06;98897.50;1686547;83;21022;-69
2022/06/01 12:20:51;;;;;;;7.53;0.98;;;;;;;25.98;24.48;98913.88;1684967;83;21073;-67
2022/06/01 12:29:04;;;;;;;7.12;1.07;;;;;;;25.43;24.74;98920.20;1709354;83;21056;-67
2022/06/01 12:31:33;;;;;;;;;;;;;;;24.76;24.46;98912.64;1699862;83;21067;-67
2022/06/01 12:34:18;;;;;;;3.00;0.90;;;;;;;24.52;23.64;98921.75;1690653;83;20147;-65